sensor_id;sensor_type;location;lat;lon;timestamp;pressure;altitude;pressure_sealevel;temperature;humidity
57568;BME280;43403;51.948;5.922;2023-03-07T00:00:59;99751.88;;;4.51;100.00
57568;BME280;43403;51.948;5.922;2023-03-07T00:03:25;99760.47;;;4.52;100.00
57568;BME280;43403;51.948;5.922;2023-03-07T00:06:06;99764.31;;;4.58;100.00
57568;BME280;43403;51.948;5.922;2023-03-07T00:08:34;99756.25;;;4.51;100.00
57568;BME280;43403;51.948;5.922;2023-03-07T00:11:02;99754.72;;;4.48;100.00
57568;BME280;43403;51.948;5.922;2023-03-07T00:13:29;99750.50;;;4.47;100.00
57568;BME280;43403;51.948;5.922;2023-03-07T00:16:05;99754.88;;;4.56;100.00
57568;BME280;43403;51.948;5.922;2023-03-07T00:18:32;99751.75;;;4.53;100.00
57568;BME280;43403;51.948;5.922;2023-03-07T00:21:00;99750.66;;;4.55;100.00
57568;BME280;43403;51.948;5.922;2023-03-07T00:23:28;99759.22;;;4.46;100.00
57568;BME280;43403;51.948;5.922;2023-03-07T00:25:56;99756.38;;;4.49;100.00
57568;BME280;43403;51.948;5.922;2023-03-07T00:28:23;99757.16;;;4.40;100.00
57568;BME280;43403;51.948;5.922;2023-03-07T00:30:49;99764.53;;;4.45;100.00
57568;BME280;43403;51.948;5.922;2023-03-07T00:33:16;99758.53;;;4.44;100.00
57568;BME280;43403;51.948;5.922;2023-03-07T00:35:42;99750.09;;;4.52;100.00
57568;BME280;43403;51.948;5.922;2023-03-07T00:38:09;99752.13;;;4.48;100.00
57568;BME280;43403;51.948;5.922;2023-03-07T00:40:35;99747.63;;;4.50;100.00
57568;BME280;43403;51.948;5.922;2023-03-07T00:43:02;99747.50;;;4.52;100.00
57568;BME280;43403;51.948;5.922;2023-03-07T00:45:28;99747.50;;;4.52;100.00
57568;BME280;43403;51.948;5.922;2023-03-07T00:47:55;99755.28;;;4.52;100.00
57568;BME280;43403;51.948;5.922;2023-03-07T00:50:22;99750.91;;;4.52;100.00
57568;BME280;43403;51.948;5.922;2023-03-07T00:52:49;99756.94;;;4.53;100.00
57568;BME280;43403;51.948;5.922;2023-03-07T00:55:15;99739.16;;;4.58;100.00
57568;BME280;43403;51.948;5.922;2023-03-07T00:57:42;99751.88;;;4.51;100.00
57568;BME280;43403;51.948;5.922;2023-03-07T01:00:09;99743.53;;;4.58;100.00
57568;BME280;43403;51.948;5.922;2023-03-07T01:02:36;99738.22;;;4.59;100.00
57568;BME280;43403;51.948;5.922;2023-03-07T01:05:03;99743.41;;;4.59;100.00
57568;BME280;43403;51.948;5.922;2023-03-07T01:07:29;99740.94;;;4.58;100.00
57568;BME280;43403;51.948;5.922;2023-03-07T01:09:56;99740.94;;;4.58;100.00
57568;BME280;43403;51.948;5.922;2023-03-07T01:12:22;99735.63;;;4.59;100.00
57568;BME280;43403;51.948;5.922;2023-03-07T01:14:49;99732.91;;;4.61;100.00
57568;BME280;43403;51.948;5.922;2023-03-07T01:17:16;99728.22;;;4.64;100.00
57568;BME280;43403;51.948;5.922;2023-03-07T01:19:43;99721.28;;;4.65;100.00
57568;BME280;43403;51.948;5.922;2023-03-07T01:22:09;99725.63;;;4.64;100.00
57568;BME280;43403;51.948;5.922;2023-03-07T01:24:36;99735.88;;;4.66;100.00
57568;BME280;43403;51.948;5.922;2023-03-07T01:27:02;99725.78;;;4.63;100.00
57568;BME280;43403;51.948;5.922;2023-03-07T01:29:29;99719.75;;;4.62;100.00
57568;BME280;43403;51.948;5.922;2023-03-07T01:31:55;99724.94;;;4.62;100.00
57568;BME280;43403;51.948;5.922;2023-03-07T01:34:22;99712.81;;;4.63;100.00
57568;BME280;43403;51.948;5.922;2023-03-07T01:36:49;99710.19;;;4.63;100.00
57568;BME280;43403;51.948;5.922;2023-03-07T01:39:16;99710.47;;;4.60;100.00
57568;BME280;43403;51.948;5.922;2023-03-07T01:41:44;99704.16;;;4.62;100.00
57568;BME280;43403;51.948;5.922;2023-03-07T01:44:22;99704.31;;;4.61;100.00
57568;BME280;43403;51.948;5.922;2023-03-07T01:46:54;99697.22;;;4.63;100.00
57568;BME280;43403;51.948;5.922;2023-03-07T01:49:27;99697.91;;;4.65;100.00
57568;BME280;43403;51.948;5.922;2023-03-07T01:52:16;99691.59;;;4.67;100.00
57568;BME280;43403;51.948;5.922;2023-03-07T01:54:48;99692.16;;;4.61;100.00
57568;BME280;43403;51.948;5.922;2023-03-07T01:57:22;99690.38;;;4.62;100.00
57568;BME280;43403;51.948;5.922;2023-03-07T01:59:52;99685.97;;;4.62;100.00
57568;BME280;43403;51.948;5.922;2023-03-07T02:02:21;99687.75;;;4.62;100.00
57568;BME280;43403;51.948;5.922;2023-03-07T02:07:18;99684.91;;;4.65;100.00
57568;BME280;43403;51.948;5.922;2023-03-07T02:09:46;99684.06;;;4.54;100.00
57568;BME280;43403;51.948;5.922;2023-03-07T02:12:15;99670.81;;;4.58;100.00
57568;BME280;43403;51.948;5.922;2023-03-07T02:14:43;99663.03;;;4.58;100.00
57568;BME280;43403;51.948;5.922;2023-03-07T02:17:11;99667.53;;;4.55;100.00
57568;BME280;43403;51.948;5.922;2023-03-07T02:19:56;99667.53;;;4.65;100.00
57568;BME280;43403;51.948;5.922;2023-03-07T02:22:28;99660.00;;;4.62;100.00
57568;BME280;43403;51.948;5.922;2023-03-07T02:27:51;99661.66;;;4.63;100.00
57568;BME280;43403;51.948;5.922;2023-03-07T02:30:19;99655.38;;;4.66;100.00
57568;BME280;43403;51.948;5.922;2023-03-07T02:32:45;99661.66;;;4.63;100.00
57568;BME280;43403;51.948;5.922;2023-03-07T02:35:20;99662.34;;;4.65;100.00
57568;BME280;43403;51.948;5.922;2023-03-07T02:37:51;99658.94;;;4.65;100.00
57568;BME280;43403;51.948;5.922;2023-03-07T02:40:21;99664.53;;;4.60;100.00
57568;BME280;43403;51.948;5.922;2023-03-07T02:42:50;99656.84;;;4.59;100.00
57568;BME280;43403;51.948;5.922;2023-03-07T02:45:18;99671.06;;;4.54;100.00
57568;BME280;43403;51.948;5.922;2023-03-07T02:47:45;99658.63;;;4.48;100.00
57568;BME280;43403;51.948;5.922;2023-03-07T02:50:13;99676.00;;;4.58;100.00
57568;BME280;43403;51.948;5.922;2023-03-07T02:52:40;99671.25;;;4.63;100.00
57568;BME280;43403;51.948;5.922;2023-03-07T02:55:08;99677.13;;;4.65;100.00
57568;BME280;43403;51.948;5.922;2023-03-07T02:57:34;99659.06;;;4.63;100.00
57568;BME280;43403;51.948;5.922;2023-03-07T03:00:02;99671.75;;;4.56;100.00
57568;BME280;43403;51.948;5.922;2023-03-07T03:02:32;99663.16;;;4.56;100.00
57568;BME280;43403;51.948;5.922;2023-03-07T03:04:58;99665.38;;;4.61;100.00
57568;BME280;43403;51.948;5.922;2023-03-07T03:07:25;99664.66;;;4.59;100.00
57568;BME280;43403;51.948;5.922;2023-03-07T03:09:52;99656.72;;;4.60;100.00
57568;BME280;43403;51.948;5.922;2023-03-07T03:12:18;99658.09;;;4.54;100.00
57568;BME280;43403;51.948;5.922;2023-03-07T03:14:45;99655.22;;;4.58;100.00
57568;BME280;43403;51.948;5.922;2023-03-07T03:17:11;99661.91;;;4.60;100.00
57568;BME280;43403;51.948;5.922;2023-03-07T03:19:38;99658.78;;;4.56;100.00
57568;BME280;43403;51.948;5.922;2023-03-07T03:22:05;99649.34;;;4.65;100.00
57568;BME280;43403;51.948;5.922;2023-03-07T03:24:31;99649.22;;;4.67;100.00
57568;BME280;43403;51.948;5.922;2023-03-07T03:26:58;99654.81;;;4.72;100.00
57568;BME280;43403;51.948;5.922;2023-03-07T03:29:25;99650.59;;;4.71;100.00
57568;BME280;43403;51.948;5.922;2023-03-07T03:31:51;99648.94;;;4.70;100.00
57568;BME280;43403;51.948;5.922;2023-03-07T03:34:18;99640.47;;;4.68;100.00
57568;BME280;43403;51.948;5.922;2023-03-07T03:36:45;99640.34;;;4.69;100.00
57568;BME280;43403;51.948;5.922;2023-03-07T03:39:12;99632.97;;;4.65;100.00
57568;BME280;43403;51.948;5.922;2023-03-07T03:41:39;99635.41;;;4.66;100.00
57568;BME280;43403;51.948;5.922;2023-03-07T03:44:06;99627.59;;;4.66;100.00
57568;BME280;43403;51.948;5.922;2023-03-07T03:46:34;99622.56;;;4.65;100.00
57568;BME280;43403;51.948;5.922;2023-03-07T03:49:01;99626.25;;;4.62;100.00
57568;BME280;43403;51.948;5.922;2023-03-07T03:51:29;99628.16;;;4.60;100.00
57568;BME280;43403;51.948;5.922;2023-03-07T03:53:55;99619.44;;;4.61;100.00
57568;BME280;43403;51.948;5.922;2023-03-07T03:56:25;99621.22;;;4.61;100.00
57568;BME280;43403;51.948;5.922;2023-03-07T03:58:54;99623.66;;;4.62;100.00
57568;BME280;43403;51.948;5.922;2023-03-07T04:01:21;99631.19;;;4.65;100.00
57568;BME280;43403;51.948;5.922;2023-03-07T04:03:49;99627.22;;;4.71;100.00
57568;BME280;43403;51.948;5.922;2023-03-07T04:06:22;99629.81;;;4.71;100.00
57568;BME280;43403;51.948;5.922;2023-03-07T04:08:50;99624.31;;;4.64;100.00
57568;BME280;43403;51.948;5.922;2023-03-07T04:11:18;99629.53;;;4.64;100.00
57568;BME280;43403;51.948;5.922;2023-03-07T04:13:44;99630.06;;;4.68;100.00
57568;BME280;43403;51.948;5.922;2023-03-07T04:16:11;99616.41;;;4.66;100.00
57568;BME280;43403;51.948;5.922;2023-03-07T04:18:37;99626.78;;;4.66;100.00
57568;BME280;43403;51.948;5.922;2023-03-07T04:21:06;99621.59;;;4.66;100.00
57568;BME280;43403;51.948;5.922;2023-03-07T04:23:33;99614.22;;;4.61;100.00
57568;BME280;43403;51.948;5.922;2023-03-07T04:26:01;99611.09;;;4.58;100.00
57568;BME280;43403;51.948;5.922;2023-03-07T04:28:30;99615.72;;;4.54;100.00
57568;BME280;43403;51.948;5.922;2023-03-07T04:31:27;99604.66;;;4.52;100.00
57568;BME280;43403;51.948;5.922;2023-03-07T04:33:55;99607.66;;;4.47;100.00
57568;BME280;43403;51.948;5.922;2023-03-07T04:36:22;99602.88;;;4.43;100.00
57568;BME280;43403;51.948;5.922;2023-03-07T04:38:49;99603.03;;;4.41;100.00
57568;BME280;43403;51.948;5.922;2023-03-07T04:41:21;99596.88;;;4.42;100.00
57568;BME280;43403;51.948;5.922;2023-03-07T04:43:48;99594.56;;;4.39;100.00
57568;BME280;43403;51.948;5.922;2023-03-07T04:46:16;99596.19;;;4.40;100.00
57568;BME280;43403;51.948;5.922;2023-03-07T04:48:43;99594.56;;;4.39;100.00
57568;BME280;43403;51.948;5.922;2023-03-07T04:51:10;99593.72;;;4.39;100.00
57568;BME280;43403;51.948;5.922;2023-03-07T04:53:37;99590.03;;;4.31;100.00
57568;BME280;43403;51.948;5.922;2023-03-07T04:56:05;99591.25;;;4.37;100.00
57568;BME280;43403;51.948;5.922;2023-03-07T04:58:33;99592.47;;;4.43;100.00
57568;BME280;43403;51.948;5.922;2023-03-07T05:01:01;99593.72;;;4.39;100.00
57568;BME280;43403;51.948;5.922;2023-03-07T05:03:28;99581.69;;;4.38;100.00
57568;BME280;43403;51.948;5.922;2023-03-07T05:05:54;99578.44;;;4.35;100.00
57568;BME280;43403;51.948;5.922;2023-03-07T05:08:21;99583.63;;;4.35;100.00
57568;BME280;43403;51.948;5.922;2023-03-07T05:10:48;99587.16;;;4.34;100.00
57568;BME280;43403;51.948;5.922;2023-03-07T05:13:14;99582.78;;;4.35;100.00
57568;BME280;43403;51.948;5.922;2023-03-07T05:15:41;99576.50;;;4.38;100.00
57568;BME280;43403;51.948;5.922;2023-03-07T05:18:07;99577.75;;;4.33;100.00
57568;BME280;43403;51.948;5.922;2023-03-07T05:20:34;99568.44;;;4.31;100.00
57568;BME280;43403;51.948;5.922;2023-03-07T05:23:00;99575.97;;;4.34;100.00
57568;BME280;43403;51.948;5.922;2023-03-07T05:25:27;99574.84;;;4.27;100.00
57568;BME280;43403;51.948;5.922;2023-03-07T05:27:53;99572.81;;;4.30;100.00
57568;BME280;43403;51.948;5.922;2023-03-07T05:30:20;99573.09;;;4.27;100.00
57568;BME280;43403;51.948;5.922;2023-03-07T05:32:47;99567.91;;;4.27;100.00
57568;BME280;43403;51.948;5.922;2023-03-07T05:35:14;99568.03;;;4.26;100.00
57568;BME280;43403;51.948;5.922;2023-03-07T05:37:41;99573.22;;;4.26;100.00
57568;BME280;43403;51.948;5.922;2023-03-07T05:40:08;99566.25;;;4.26;100.00
57568;BME280;43403;51.948;5.922;2023-03-07T05:42:36;99569.66;;;4.27;100.00
57568;BME280;43403;51.948;5.922;2023-03-07T05:45:03;99571.56;;;4.25;100.00
57568;BME280;43403;51.948;5.922;2023-03-07T05:47:31;99568.72;;;4.18;100.00
57568;BME280;43403;51.948;5.922;2023-03-07T05:49:57;99569.94;;;4.14;100.00
57568;BME280;43403;51.948;5.922;2023-03-07T05:52:24;99573.91;;;4.18;100.00
57568;BME280;43403;51.948;5.922;2023-03-07T05:54:51;99577.19;;;4.20;100.00
57568;BME280;43403;51.948;5.922;2023-03-07T05:57:17;99577.72;;;4.14;100.00
57568;BME280;43403;51.948;5.922;2023-03-07T05:59:44;99575.94;;;4.05;100.00
57568;BME280;43403;51.948;5.922;2023-03-07T06:02:10;99579.34;;;4.05;100.00
57568;BME280;43403;51.948;5.922;2023-03-07T06:04:37;99584.13;;;4.00;100.00
57568;BME280;43403;51.948;5.922;2023-03-07T06:07:03;99582.91;;;4.04;100.00
57568;BME280;43403;51.948;5.922;2023-03-07T06:09:30;99585.22;;;4.07;100.00
57568;BME280;43403;51.948;5.922;2023-03-07T06:11:56;99597.50;;;4.05;100.00
57568;BME280;43403;51.948;5.922;2023-03-07T06:14:23;99582.38;;;4.10;100.00
57568;BME280;43403;51.948;5.922;2023-03-07T06:16:50;99585.75;;;4.01;100.00
57568;BME280;43403;51.948;5.922;2023-03-07T06:19:16;99586.56;;;4.02;100.00
57568;BME280;43403;51.948;5.922;2023-03-07T06:21:43;99582.34;;;4.01;100.00
57568;BME280;43403;51.948;5.922;2023-03-07T06:24:09;99583.59;;;4.06;100.00
57568;BME280;43403;51.948;5.922;2023-03-07T06:26:36;99577.31;;;4.09;100.00
57568;BME280;43403;51.948;5.922;2023-03-07T06:29:02;99584.16;;;4.10;100.00
57568;BME280;43403;51.948;5.922;2023-03-07T06:31:29;99581.28;;;4.13;100.00
57568;BME280;43403;51.948;5.922;2023-03-07T06:33:55;99581.56;;;4.10;100.00
57568;BME280;43403;51.948;5.922;2023-03-07T06:36:23;99592.88;;;4.09;100.00
57568;BME280;43403;51.948;5.922;2023-03-07T06:38:49;99594.78;;;3.97;100.00
57568;BME280;43403;51.948;5.922;2023-03-07T06:41:16;99597.91;;;3.91;100.00
57568;BME280;43403;51.948;5.922;2023-03-07T06:43:43;99603.50;;;3.86;100.00
57568;BME280;43403;51.948;5.922;2023-03-07T06:46:10;99598.81;;;3.80;100.00
57568;BME280;43403;51.948;5.922;2023-03-07T06:48:36;99612.72;;;3.69;100.00
57568;BME280;43403;51.948;5.922;2023-03-07T06:51:07;99609.69;;;3.64;100.00
57568;BME280;43403;51.948;5.922;2023-03-07T06:53:34;99619.25;;;3.64;100.00
57568;BME280;43403;51.948;5.922;2023-03-07T06:56:00;99619.78;;;3.58;100.00
57568;BME280;43403;51.948;5.922;2023-03-07T06:58:27;99619.78;;;3.58;100.00
57568;BME280;43403;51.948;5.922;2023-03-07T07:00:54;99616.06;;;3.50;100.00
57568;BME280;43403;51.948;5.922;2023-03-07T07:03:20;99619.50;;;3.61;100.00
57568;BME280;43403;51.948;5.922;2023-03-07T07:05:47;99623.97;;;3.49;100.00
57568;BME280;43403;51.948;5.922;2023-03-07T07:08:14;99622.19;;;3.40;100.00
57568;BME280;43403;51.948;5.922;2023-03-07T07:10:40;99627.34;;;3.40;100.00
57568;BME280;43403;51.948;5.922;2023-03-07T07:13:07;99635.50;;;3.35;100.00
57568;BME280;43403;51.948;5.922;2023-03-07T07:15:34;99630.25;;;3.25;100.00
57568;BME280;43403;51.948;5.922;2023-03-07T07:18:00;99632.03;;;3.25;100.00
57568;BME280;43403;51.948;5.922;2023-03-07T07:20:27;99638.31;;;3.22;100.00
57568;BME280;43403;51.948;5.922;2023-03-07T07:22:53;99641.59;;;3.24;100.00
57568;BME280;43403;51.948;5.922;2023-03-07T07:25:20;99625.88;;;3.16;100.00
57568;BME280;43403;51.948;5.922;2023-03-07T07:27:47;99627.78;;;3.14;100.00
57568;BME280;43403;51.948;5.922;2023-03-07T07:30:13;99628.97;;;3.10;100.00
57568;BME280;43403;51.948;5.922;2023-03-07T07:32:40;99624.72;;;3.09;100.00
57568;BME280;43403;51.948;5.922;2023-03-07T07:35:07;99626.25;;;3.11;100.00
57568;BME280;43403;51.948;5.922;2023-03-07T07:37:33;99628.41;;;3.06;100.00
57568;BME280;43403;51.948;5.922;2023-03-07T07:40:00;99630.44;;;3.03;100.00
57568;BME280;43403;51.948;5.922;2023-03-07T07:42:26;99634.66;;;3.04;100.00
57568;BME280;43403;51.948;5.922;2023-03-07T07:44:53;99626.63;;;3.07;100.00
57568;BME280;43403;51.948;5.922;2023-03-07T07:47:19;99633.84;;;3.03;100.00
57568;BME280;43403;51.948;5.922;2023-03-07T07:49:46;99628.78;;;3.02;100.00
57568;BME280;43403;51.948;5.922;2023-03-07T07:52:13;99633.25;;;3.00;100.00
57568;BME280;43403;51.948;5.922;2023-03-07T07:54:39;99645.00;;;3.04;100.00
57568;BME280;43403;51.948;5.922;2023-03-07T07:57:06;99641.88;;;3.00;100.00
57568;BME280;43403;51.948;5.922;2023-03-07T07:59:32;99635.31;;;2.96;100.00
57568;BME280;43403;51.948;5.922;2023-03-07T08:02:00;99636.31;;;3.05;100.00
57568;BME280;43403;51.948;5.922;2023-03-07T08:04:27;99645.06;;;3.13;100.00
57568;BME280;43403;51.948;5.922;2023-03-07T08:06:54;99647.72;;;3.23;100.00
57568;BME280;43403;51.948;5.922;2023-03-07T08:09:22;99650.47;;;3.22;100.00
57568;BME280;43403;51.948;5.922;2023-03-07T08:11:56;99655.66;;;3.22;100.00
57568;BME280;43403;51.948;5.922;2023-03-07T08:14:22;99657.53;;;3.20;100.00
57568;BME280;43403;51.948;5.922;2023-03-07T08:16:49;99662.56;;;3.21;100.00
57568;BME280;43403;51.948;5.922;2023-03-07T08:19:15;99654.69;;;3.23;100.00
57568;BME280;43403;51.948;5.922;2023-03-07T08:21:43;99659.28;;;3.19;100.00
57568;BME280;43403;51.948;5.922;2023-03-07T08:24:09;99669.34;;;3.12;100.00
57568;BME280;43403;51.948;5.922;2023-03-07T08:26:36;99662.28;;;3.14;100.00
57568;BME280;43403;51.948;5.922;2023-03-07T08:29:02;99669.88;;;3.06;100.00
57568;BME280;43403;51.948;5.922;2023-03-07T08:31:29;99666.81;;;3.01;100.00
57568;BME280;43403;51.948;5.922;2023-03-07T08:33:55;99669.97;;;3.05;100.00
57568;BME280;43403;51.948;5.922;2023-03-07T08:36:22;99665.88;;;3.02;100.00
57568;BME280;43403;51.948;5.922;2023-03-07T08:38:49;99670.22;;;3.02;100.00
57568;BME280;43403;51.948;5.922;2023-03-07T08:41:18;99671.56;;;2.96;100.00
57568;BME280;43403;51.948;5.922;2023-03-07T08:43:44;99663.53;;;2.99;100.00
57568;BME280;43403;51.948;5.922;2023-03-07T08:46:11;99671.56;;;2.96;100.00
57568;BME280;43403;51.948;5.922;2023-03-07T08:48:38;99675.56;;;3.00;100.00
57568;BME280;43403;51.948;5.922;2023-03-07T08:51:11;99666.13;;;2.99;100.00
57568;BME280;43403;51.948;5.922;2023-03-07T08:53:37;99670.31;;;2.90;100.00
57568;BME280;43403;51.948;5.922;2023-03-07T08:56:09;99679.13;;;2.88;100.00
57568;BME280;43403;51.948;5.922;2023-03-07T08:58:37;99673.13;;;2.87;100.00
57568;BME280;43403;51.948;5.922;2023-03-07T09:01:04;99670.53;;;2.87;100.00
57568;BME280;43403;51.948;5.922;2023-03-07T09:03:31;99669.91;;;2.95;100.00
57568;BME280;43403;51.948;5.922;2023-03-07T09:05:59;99667.78;;;3.00;100.00
57568;BME280;43403;51.948;5.922;2023-03-07T09:08:26;99673.25;;;2.86;100.00
57568;BME280;43403;51.948;5.922;2023-03-07T09:10:52;99670.66;;;2.86;100.00
57568;BME280;43403;51.948;5.922;2023-03-07T09:13:19;99673.50;;;2.83;100.00
57568;BME280;43403;51.948;5.922;2023-03-07T09:15:46;99672.31;;;2.87;100.00
57568;BME280;43403;51.948;5.922;2023-03-07T09:18:12;99673.00;;;2.89;100.00
57568;BME280;43403;51.948;5.922;2023-03-07T09:20:39;99677.03;;;2.82;100.00
57568;BME280;43403;51.948;5.922;2023-03-07T09:23:07;99681.22;;;2.73;100.00
57568;BME280;43403;51.948;5.922;2023-03-07T09:25:33;99674.25;;;2.73;100.00
57568;BME280;43403;51.948;5.922;2023-03-07T09:28:00;99676.91;;;2.83;100.00
57568;BME280;43403;51.948;5.922;2023-03-07T09:30:26;99676.19;;;2.92;100.00
57568;BME280;43403;51.948;5.922;2023-03-07T09:32:54;99677.03;;;2.82;100.00
57568;BME280;43403;51.948;5.922;2023-03-07T09:35:20;99681.28;;;2.83;100.00
57568;BME280;43403;51.948;5.922;2023-03-07T09:37:47;99687.84;;;2.87;100.00
57568;BME280;43403;51.948;5.922;2023-03-07T09:40:19;99671.81;;;2.93;100.00
57568;BME280;43403;51.948;5.922;2023-03-07T09:43:20;99677.91;;;2.92;100.00
57568;BME280;43403;51.948;5.922;2023-03-07T09:51:35;99666.81;;;3.01;100.00
57568;BME280;43403;51.948;5.922;2023-03-07T09:54:15;99670.44;;;3.10;100.00
57568;BME280;43403;51.948;5.922;2023-03-07T09:56:46;99675.69;;;3.20;100.00
57568;BME280;43403;51.948;5.922;2023-03-07T10:02:27;99677.31;;;3.21;100.00
57568;BME280;43403;51.948;5.922;2023-03-07T10:05:13;99676.31;;;3.12;100.00
57568;BME280;43403;51.948;5.922;2023-03-07T10:07:43;99672.56;;;3.05;100.00
57568;BME280;43403;51.948;5.922;2023-03-07T10:10:15;99679.53;;;3.04;100.00
57568;BME280;43403;51.948;5.922;2023-03-07T10:12:51;99675.78;;;2.97;100.00
57568;BME280;43403;51.948;5.922;2023-03-07T10:15:45;99682.34;;;3.01;100.00
57568;BME280;43403;51.948;5.922;2023-03-07T10:24:10;99688.75;;;3.18;100.00
57568;BME280;43403;51.948;5.922;2023-03-07T10:26:56;99677.88;;;3.24;100.00
57568;BME280;43403;51.948;5.922;2023-03-07T10:29:29;99684.84;;;3.24;100.00
57568;BME280;43403;51.948;5.922;2023-03-07T10:34:38;99681.34;;;3.34;100.00
57568;BME280;43403;51.948;5.922;2023-03-07T10:37:13;99686.97;;;3.19;100.00
57568;BME280;43403;51.948;5.922;2023-03-07T10:39:54;99682.44;;;3.32;100.00
57568;BME280;43403;51.948;5.922;2023-03-07T10:42:23;99687.09;;;3.38;100.00
57568;BME280;43403;51.948;5.922;2023-03-07T10:44:51;99677.50;;;3.29;100.00
57568;BME280;43403;51.948;5.922;2023-03-07T10:47:20;99680.72;;;3.42;100.00
57568;BME280;43403;51.948;5.922;2023-03-07T10:49:48;99680.03;;;3.40;100.00
57568;BME280;43403;51.948;5.922;2023-03-07T10:52:31;99678.47;;;3.59;100.00
57568;BME280;43403;51.948;5.922;2023-03-07T10:55:29;99678.16;;;3.52;100.00
57568;BME280;43403;51.948;5.922;2023-03-07T11:03:40;99678.94;;;3.73;100.00
57568;BME280;43403;51.948;5.922;2023-03-07T11:08:54;99672.81;;;3.74;100.00
57568;BME280;43403;51.948;5.922;2023-03-07T11:11:24;99680.06;;;3.81;100.00
57568;BME280;43403;51.948;5.922;2023-03-07T11:14:09;99683.03;;;3.76;100.00
57568;BME280;43403;51.948;5.922;2023-03-07T11:17:01;99684.66;;;3.98;100.00
57568;BME280;43403;51.948;5.922;2023-03-07T11:19:40;99677.84;;;4.07;100.00
57568;BME280;43403;51.948;5.922;2023-03-07T11:22:20;99682.78;;;4.20;100.00
57568;BME280;43403;51.948;5.922;2023-03-07T11:24:53;99682.94;;;4.28;100.00
57568;BME280;43403;51.948;5.922;2023-03-07T11:27:31;99675.03;;;4.39;100.00
57568;BME280;43403;51.948;5.922;2023-03-07T11:32:52;99683.75;;;4.28;100.00
57568;BME280;43403;51.948;5.922;2023-03-07T11:38:06;99682.69;;;4.41;100.00
57568;BME280;43403;51.948;5.922;2023-03-07T11:40:43;99682.84;;;4.49;100.00
57568;BME280;43403;51.948;5.922;2023-03-07T11:43:18;99683.22;;;4.44;100.00
57568;BME280;43403;51.948;5.922;2023-03-07T11:45:54;99678.47;;;4.49;100.00
57568;BME280;43403;51.948;5.922;2023-03-07T11:48:35;99677.66;;;4.49;100.00
57568;BME280;43403;51.948;5.922;2023-03-07T11:51:05;99675.03;;;4.59;100.00
57568;BME280;43403;51.948;5.922;2023-03-07T11:56:34;99681.06;;;4.49;100.00
57568;BME280;43403;51.948;5.922;2023-03-07T12:01:57;99678.59;;;4.48;100.00
57568;BME280;43403;51.948;5.922;2023-03-07T12:04:29;99681.63;;;4.53;100.00
57568;BME280;43403;51.948;5.922;2023-03-07T12:09:48;99665.63;;;4.48;100.00
57568;BME280;43403;51.948;5.922;2023-03-07T12:15:38;99674.63;;;4.44;100.00
57568;BME280;43403;51.948;5.922;2023-03-07T12:23:26;99675.97;;;4.28;100.00
57568;BME280;43403;51.948;5.922;2023-03-07T12:26:03;99673.50;;;4.27;100.00
57568;BME280;43403;51.948;5.922;2023-03-07T12:28:47;99681.28;;;4.27;100.00
57568;BME280;43403;51.948;5.922;2023-03-07T12:31:27;99681.41;;;4.15;100.00
57568;BME280;43403;51.948;5.922;2023-03-07T12:36:39;99691.97;;;4.24;100.00
57568;BME280;43403;51.948;5.922;2023-03-07T12:41:54;99697.63;;;3.98;100.00
57568;BME280;43403;51.948;5.922;2023-03-07T12:44:38;99699.16;;;3.80;100.00
57568;BME280;43403;51.948;5.922;2023-03-07T12:50:19;99706.09;;;3.69;100.00
57568;BME280;43403;51.948;5.922;2023-03-07T12:53:17;99701.25;;;3.55;100.00
57568;BME280;43403;51.948;5.922;2023-03-07T12:55:55;99702.84;;;3.46;100.00
57568;BME280;43403;51.948;5.922;2023-03-07T12:58:40;99705.81;;;3.42;100.00
57568;BME280;43403;51.948;5.922;2023-03-07T13:01:30;99708.97;;;3.45;100.00
57568;BME280;43403;51.948;5.922;2023-03-07T13:04:17;99706.56;;;3.53;100.00
57568;BME280;43403;51.948;5.922;2023-03-07T13:06:47;99710.50;;;3.48;100.00
57568;BME280;43403;51.948;5.922;2023-03-07T13:09:24;99710.38;;;3.49;100.00
57568;BME280;43403;51.948;5.922;2023-03-07T13:14:46;99714.22;;;3.55;100.00
57568;BME280;43403;51.948;5.922;2023-03-07T13:30:27;99706.34;;;3.66;100.00
57568;BME280;43403;51.948;5.922;2023-03-07T13:33:24;99699.66;;;3.64;100.00
57568;BME280;43403;51.948;5.922;2023-03-07T13:35:54;99712.53;;;3.75;100.00
57568;BME280;43403;51.948;5.922;2023-03-07T13:38:31;99714.69;;;3.70;100.00
57568;BME280;43403;51.948;5.922;2023-03-07T13:41:04;99708.72;;;3.79;100.00
57568;BME280;43403;51.948;5.922;2023-03-07T13:43:37;99715.44;;;3.82;100.00
57568;BME280;43403;51.948;5.922;2023-03-07T13:46:44;99709.09;;;4.05;100.00
57568;BME280;43403;51.948;5.922;2023-03-07T13:49:34;99710.88;;;4.05;100.00
57568;BME280;43403;51.948;5.922;2023-03-07T13:52:21;99713.63;;;4.13;100.00
57568;BME280;43403;51.948;5.922;2023-03-07T13:54:48;99710.78;;;4.16;100.00
57568;BME280;43403;51.948;5.922;2023-03-07T13:57:19;99707.53;;;4.24;100.00
57568;BME280;43403;51.948;5.922;2023-03-07T13:59:49;99717.75;;;4.25;100.00
57568;BME280;43403;51.948;5.922;2023-03-07T14:02:16;99711.06;;;4.23;100.00
57568;BME280;43403;51.948;5.922;2023-03-07T14:04:53;99718.75;;;4.34;100.00
57568;BME280;43403;51.948;5.922;2023-03-07T14:07:27;99714.94;;;4.38;100.00
57568;BME280;43403;51.948;5.922;2023-03-07T14:10:01;99716.84;;;4.36;100.00
57568;BME280;43403;51.948;5.922;2023-03-07T14:16:02;99723.81;;;4.35;100.00
57568;BME280;43403;51.948;5.922;2023-03-07T14:18:56;99724.59;;;4.26;100.00
57568;BME280;43403;51.948;5.922;2023-03-07T14:26:45;99728.88;;;4.47;100.00
57568;BME280;43403;51.948;5.922;2023-03-07T14:29:23;99736.38;;;4.40;100.00
57568;BME280;43403;51.948;5.922;2023-03-07T14:31:51;99740.22;;;4.36;100.00
57568;BME280;43403;51.948;5.922;2023-03-07T14:37:11;99735.69;;;4.28;100.00
57568;BME280;43403;51.948;5.922;2023-03-07T14:39:58;99737.59;;;4.26;100.00
57568;BME280;43403;51.948;5.922;2023-03-07T14:45:50;99739.22;;;4.18;100.00
57568;BME280;43403;51.948;5.922;2023-03-07T14:48:44;99750.06;;;4.02;100.00